createdAt,value
2023-02-16T00:01:27.256Z,21.17
2023-02-16T00:03:59.268Z,22.03
2023-02-16T00:06:30.754Z,27.30
2023-02-16T00:09:01.788Z,27.73
2023-02-16T00:11:57.716Z,22.83
2023-02-16T00:14:29.072Z,20.50
2023-02-16T00:17:01.079Z,24.27
2023-02-16T00:19:34.219Z,23.00
2023-02-16T00:22:06.167Z,20.77
2023-02-16T00:24:37.922Z,19.57
2023-02-16T00:27:15.190Z,22.10
2023-02-16T00:29:46.405Z,24.57
2023-02-16T00:32:17.355Z,20.90
2023-02-16T00:34:48.411Z,19.00
2023-02-16T00:37:19.327Z,18.20
2023-02-16T00:39:50.196Z,24.33
2023-02-16T00:42:24.108Z,24.17
2023-02-16T00:44:57.242Z,19.13
2023-02-16T00:47:30.929Z,21.03
2023-02-16T00:50:02.280Z,19.10
2023-02-16T00:52:38.223Z,18.50
2023-02-16T00:55:12.629Z,22.90
2023-02-16T00:57:47.100Z,19.97
2023-02-16T01:00:22.729Z,50.10
2023-02-16T01:02:56.327Z,21.10
2023-02-16T01:05:27.782Z,19.57
2023-02-16T01:08:16.533Z,26.93
2023-02-16T01:11:05.923Z,20.80
2023-02-16T01:13:56.399Z,23.13
2023-02-16T01:16:29.698Z,29.57
2023-02-16T01:19:00.605Z,34.43
2023-02-16T01:21:31.568Z,24.47
2023-02-16T01:24:02.608Z,16.30
2023-02-16T01:26:36.722Z,26.27
2023-02-16T01:29:07.948Z,24.37
2023-02-16T01:31:38.975Z,19.30
2023-02-16T01:34:09.964Z,60.80
2023-02-16T01:36:43.855Z,22.77
2023-02-16T01:39:17.868Z,22.77
2023-02-16T01:41:58.436Z,22.97
2023-02-16T01:44:31.896Z,27.30
2023-02-16T01:47:07.066Z,19.77
2023-02-16T01:49:38.107Z,19.97
2023-02-16T01:52:13.999Z,24.73
2023-02-16T01:54:47.956Z,21.43
2023-02-16T01:57:27.001Z,24.43
2023-02-16T02:03:33.501Z,24.13
2023-02-16T02:06:04.893Z,21.20
2023-02-16T02:08:38.474Z,19.27
2023-02-16T02:11:13.180Z,22.97
2023-02-16T02:13:46.931Z,22.50
2023-02-16T02:16:21.685Z,24.40
2023-02-16T02:18:53.229Z,21.40
2023-02-16T02:21:57.996Z,30.13
2023-02-16T02:27:43.858Z,22.50
2023-02-16T02:30:37.813Z,22.90
2023-02-16T02:33:22.155Z,22.47
2023-02-16T02:35:58.000Z,25.90
2023-02-16T02:38:31.816Z,25.30
2023-02-16T02:41:06.465Z,28.47
2023-02-16T02:43:40.437Z,23.33
2023-02-16T02:46:15.597Z,18.83
2023-02-16T02:48:46.502Z,22.77
2023-02-16T02:51:30.497Z,27.70
2023-02-16T02:54:21.977Z,25.27
2023-02-16T02:57:13.400Z,22.73
2023-02-16T03:00:05.519Z,26.40
2023-02-16T03:02:38.239Z,25.17
2023-02-16T03:05:11.816Z,22.33
2023-02-16T03:07:49.208Z,27.50
2023-02-16T03:10:41.326Z,25.23
2023-02-16T03:13:15.368Z,24.60
2023-02-16T03:15:47.707Z,27.00
2023-02-16T03:18:37.180Z,22.30
2023-02-16T03:21:26.552Z,23.73
2023-02-16T03:24:16.229Z,25.53
2023-02-16T03:27:07.680Z,24.80
2023-02-16T03:29:40.444Z,21.73
2023-02-16T03:32:11.697Z,21.53
2023-02-16T03:34:42.988Z,25.63
2023-02-16T03:37:14.782Z,24.43
2023-02-16T03:40:03.850Z,25.23
2023-02-16T03:42:39.881Z,27.40
2023-02-16T03:45:12.033Z,24.47
2023-02-16T03:47:42.968Z,22.63
2023-02-16T03:50:13.936Z,21.70
2023-02-16T03:52:44.911Z,21.70
2023-02-16T03:55:16.314Z,21.90
2023-02-16T03:57:47.402Z,20.53
2023-02-16T04:00:19.771Z,22.43
2023-02-16T04:02:50.821Z,20.33
2023-02-16T04:05:21.922Z,26.37
2023-02-16T04:07:52.942Z,24.47
2023-02-16T04:10:24.229Z,23.00
2023-02-16T04:12:55.550Z,22.85
2023-02-16T04:15:28.792Z,27.30
2023-02-16T04:18:00.170Z,24.27
2023-02-16T04:20:33.483Z,23.00
2023-02-16T04:23:04.978Z,22.67
2023-02-16T04:25:36.924Z,25.13
2023-02-16T04:28:18.336Z,25.50
2023-02-16T04:30:49.503Z,28.27
2023-02-16T04:33:20.491Z,26.37
2023-02-16T04:35:52.615Z,32.47
2023-02-16T04:38:23.581Z,31.47
2023-02-16T04:40:54.650Z,25.40
2023-02-16T04:43:25.862Z,22.90
2023-02-16T04:45:57.053Z,26.33
2023-02-16T04:48:28.286Z,26.43
2023-02-16T04:50:59.119Z,28.43
2023-02-16T04:53:30.051Z,25.07
2023-02-16T04:56:01.221Z,27.77
2023-02-16T04:58:32.208Z,26.17
2023-02-16T05:01:03.903Z,27.77
2023-02-16T05:03:35.057Z,22.80
2023-02-16T05:06:08.368Z,27.03
2023-02-16T05:08:39.286Z,33.30
2023-02-16T05:11:28.118Z,29.73
2023-02-16T05:14:17.597Z,34.07
2023-02-16T05:16:48.988Z,25.40
2023-02-16T05:19:19.747Z,28.03
2023-02-16T05:21:50.638Z,32.30
2023-02-16T05:27:00.020Z,25.10
2023-02-16T05:29:31.233Z,24.03
2023-02-16T05:32:04.557Z,28.10
2023-02-16T05:37:11.697Z,25.30
2023-02-16T05:39:42.788Z,26.00
2023-02-16T05:42:14.009Z,27.87
2023-02-16T05:44:45.172Z,24.83
2023-02-16T05:47:16.202Z,33.20
2023-02-16T05:49:47.251Z,29.07
2023-02-16T05:52:18.448Z,28.47
2023-02-16T05:54:49.731Z,29.87
2023-02-16T05:57:20.783Z,26.73
2023-02-16T05:59:51.910Z,29.63
2023-02-16T06:02:22.965Z,22.20
2023-02-16T06:04:54.194Z,26.57
2023-02-16T06:07:25.254Z,30.50
2023-02-16T06:09:56.233Z,29.07
2023-02-16T06:12:27.237Z,30.47
2023-02-16T06:14:57.981Z,30.93
2023-02-16T06:17:29.315Z,26.73
2023-02-16T06:20:00.342Z,28.57
2023-02-16T06:22:31.353Z,27.97
2023-02-16T06:25:02.321Z,26.63
2023-02-16T06:27:33.441Z,24.30
2023-02-16T06:30:04.992Z,36.87
2023-02-16T06:32:36.089Z,27.40
2023-02-16T06:35:10.224Z,29.17
2023-02-16T06:37:41.184Z,28.43
2023-02-16T06:40:15.237Z,28.30
2023-02-16T06:42:46.139Z,33.33
2023-02-16T06:45:17.134Z,31.13
2023-02-16T06:47:48.097Z,28.90
2023-02-16T06:50:19.292Z,29.63
2023-02-16T06:52:50.324Z,26.33
2023-02-16T06:55:21.389Z,23.27
2023-02-16T06:57:52.409Z,25.43
2023-02-16T07:00:24.329Z,27.07
2023-02-16T07:02:55.531Z,28.53
2023-02-16T07:05:26.806Z,25.33
2023-02-16T07:07:57.871Z,26.27
2023-02-16T07:10:37.401Z,28.60
2023-02-16T07:13:01.648Z,23.33
2023-02-16T07:15:34.620Z,24.47
2023-02-16T07:18:05.875Z,26.67
2023-02-16T07:20:37.101Z,28.10
2023-02-16T07:23:08.177Z,30.50
2023-02-16T07:25:39.214Z,31.40
2023-02-16T07:28:10.277Z,29.23
2023-02-16T07:30:41.477Z,25.53
2023-02-16T07:33:12.716Z,27.43
2023-02-16T07:35:43.889Z,26.67
2023-02-16T07:38:14.900Z,28.87
2023-02-16T07:40:45.934Z,28.50
2023-02-16T07:43:18.584Z,28.70
2023-02-16T07:45:49.700Z,24.50
2023-02-16T07:48:21.102Z,25.17
2023-02-16T07:50:52.124Z,31.40
2023-02-16T07:53:23.260Z,24.73
2023-02-16T07:55:54.366Z,44.43
2023-02-16T07:58:28.612Z,37.77
2023-02-16T08:01:08.930Z,31.67
2023-02-16T08:03:40.352Z,27.00
2023-02-16T08:06:12.199Z,26.53
2023-02-16T08:08:43.565Z,45.50
2023-02-16T08:11:16.472Z,49.10
2023-02-16T08:13:48.103Z,54.07
2023-02-16T08:16:21.422Z,47.33
2023-02-16T08:18:53.026Z,36.60
2023-02-16T08:21:25.555Z,44.17
2023-02-16T08:23:58.937Z,34.43
2023-02-16T08:26:32.631Z,25.90
2023-02-16T08:29:03.831Z,26.63
2023-02-16T08:31:36.926Z,36.97
2023-02-16T08:34:26.652Z,28.60
2023-02-16T08:36:58.734Z,19.87
2023-02-16T08:39:31.435Z,22.87
2023-02-16T08:42:04.044Z,29.97
2023-02-16T08:44:35.273Z,25.93
2023-02-16T08:47:06.425Z,26.83
2023-02-16T08:49:38.490Z,31.27
2023-02-16T08:52:10.221Z,30.57
2023-02-16T08:54:42.262Z,31.47
2023-02-16T08:57:14.371Z,27.17
2023-02-16T08:59:45.344Z,27.00
2023-02-16T09:02:18.329Z,32.07
2023-02-16T09:04:49.808Z,33.83
2023-02-16T09:07:21.552Z,26.27
2023-02-16T09:09:53.105Z,23.47
2023-02-16T09:12:24.056Z,20.47
2023-02-16T09:14:56.355Z,22.03
2023-02-16T09:17:28.232Z,30.73
2023-02-16T09:19:59.311Z,24.57
2023-02-16T09:22:30.247Z,24.97
2023-02-16T09:25:01.289Z,25.33
2023-02-16T09:27:32.896Z,30.73
2023-02-16T09:30:04.119Z,30.33
2023-02-16T09:32:35.351Z,23.63
2023-02-16T09:35:07.503Z,27.50
2023-02-16T09:37:38.573Z,19.67
2023-02-16T09:40:14.262Z,20.80
2023-02-16T09:42:54.138Z,25.43
2023-02-16T09:45:27.012Z,18.82
2023-02-16T09:48:00.062Z,20.03
2023-02-16T09:50:52.580Z,22.60
2023-02-16T09:53:09.744Z,18.77
2023-02-16T09:55:43.917Z,21.43
2023-02-16T09:58:19.315Z,17.17
2023-02-16T10:00:54.127Z,20.90
2023-02-16T10:03:37.362Z,18.63
2023-02-16T10:06:16.389Z,17.73
2023-02-16T10:08:50.709Z,26.50
2023-02-16T10:11:40.984Z,24.23
2023-02-16T10:14:16.369Z,26.57
2023-02-16T10:16:51.197Z,31.67
2023-02-16T10:19:24.914Z,29.67
2023-02-16T10:21:58.707Z,26.73
2023-02-16T10:24:32.499Z,28.77
2023-02-16T10:27:08.508Z,20.67
2023-02-16T10:29:39.362Z,24.80
2023-02-16T10:32:17.568Z,28.07
2023-02-16T10:34:52.879Z,21.50
2023-02-16T10:37:33.331Z,18.80
2023-02-16T10:40:15.625Z,36.50
2023-02-16T10:42:50.354Z,32.10
2023-02-16T10:45:28.491Z,20.23
2023-02-16T10:47:59.721Z,25.63
2023-02-16T10:50:33.813Z,34.83
2023-02-16T10:53:08.163Z,24.17
2023-02-16T10:55:40.149Z,19.57
2023-02-16T10:58:18.735Z,27.73
2023-02-16T11:00:54.634Z,17.83
2023-02-16T11:03:29.304Z,19.93
2023-02-16T11:06:05.318Z,21.80
2023-02-16T11:08:41.421Z,24.43
2023-02-16T11:11:13.712Z,22.43
2023-02-16T11:13:46.088Z,26.57
2023-02-16T11:16:22.553Z,25.07
2023-02-16T11:19:00.426Z,24.47
2023-02-16T11:21:48.301Z,20.27
2023-02-16T11:24:28.792Z,16.90
2023-02-16T11:27:08.346Z,24.73
2023-02-16T11:29:39.394Z,26.50
2023-02-16T11:32:12.383Z,25.67
2023-02-16T11:34:44.911Z,20.43
2023-02-16T11:37:20.323Z,17.20
2023-02-16T11:39:54.582Z,18.93
2023-02-16T11:42:31.397Z,19.90
2023-02-16T11:45:03.792Z,15.27
2023-02-16T11:47:37.800Z,18.90
2023-02-16T11:50:23.843Z,19.63
2023-02-16T11:52:57.562Z,17.57
2023-02-16T11:55:33.194Z,14.67
2023-02-16T11:58:19.851Z,19.70
2023-02-16T12:00:59.812Z,18.23
2023-02-16T12:03:39.868Z,15.13
2023-02-16T12:06:15.703Z,13.60
2023-02-16T12:08:55.103Z,15.33
2023-02-16T12:11:31.709Z,15.83
2023-02-16T12:14:12.610Z,13.40
2023-02-16T12:16:47.363Z,13.20
2023-02-16T12:19:33.372Z,13.53
2023-02-16T12:22:08.692Z,13.43
2023-02-16T12:24:46.007Z,18.97
2023-02-16T12:27:21.167Z,13.10
2023-02-16T12:29:57.546Z,13.23
2023-02-16T12:32:42.604Z,14.97
2023-02-16T12:35:23.861Z,13.37
2023-02-16T12:37:57.640Z,13.63
2023-02-16T12:40:33.040Z,15.80
2023-02-16T12:43:12.228Z,14.30
2023-02-16T12:45:45.808Z,15.17
2023-02-16T12:48:23.698Z,12.63
2023-02-16T12:50:56.067Z,12.63
2023-02-16T12:53:30.361Z,15.13
2023-02-16T12:56:04.136Z,13.83
2023-02-16T12:58:38.357Z,13.63
2023-02-16T13:01:14.814Z,13.47
2023-02-16T13:03:50.423Z,13.70
2023-02-16T13:06:26.610Z,11.60
2023-02-16T13:09:01.741Z,14.93
2023-02-16T13:11:36.710Z,15.43
2023-02-16T13:14:13.150Z,14.80
2023-02-16T13:16:47.997Z,12.03
2023-02-16T13:19:18.972Z,18.50
2023-02-16T13:22:36.483Z,17.50
2023-02-16T13:28:31.580Z,13.20
2023-02-16T13:31:12.744Z,13.97
2023-02-16T13:33:55.498Z,14.10
2023-02-16T13:36:50.980Z,15.27
2023-02-16T13:39:34.340Z,11.13
2023-02-16T13:45:18.891Z,14.43
2023-02-16T13:47:50.275Z,13.23
2023-02-16T13:50:33.528Z,13.70
2023-02-16T13:53:20.350Z,13.90
2023-02-16T13:55:52.496Z,12.23
2023-02-16T13:58:36.053Z,12.93
2023-02-16T14:01:43.257Z,15.73
2023-02-16T14:04:18.374Z,14.70
2023-02-16T14:06:49.890Z,12.50
2023-02-16T14:09:48.677Z,10.50
2023-02-16T14:12:22.184Z,12.73
2023-02-16T14:15:02.233Z,14.40
2023-02-16T14:17:35.567Z,14.03
2023-02-16T14:20:09.106Z,12.50
2023-02-16T14:22:44.636Z,15.37
2023-02-16T14:25:37.782Z,12.00
2023-02-16T14:28:26.963Z,12.17
2023-02-16T14:30:59.299Z,9.53
2023-02-16T14:33:33.334Z,9.37
2023-02-16T14:36:15.990Z,11.37
2023-02-16T14:38:49.639Z,9.10
2023-02-16T14:41:30.868Z,10.17
2023-02-16T14:47:15.716Z,11.40
2023-02-16T14:50:09.493Z,10.20
2023-02-16T14:53:10.084Z,12.17
2023-02-16T14:56:03.485Z,12.10
2023-02-16T14:58:37.876Z,9.97
2023-02-16T15:01:12.705Z,10.17
2023-02-16T15:03:48.909Z,11.28
2023-02-16T15:06:30.760Z,10.57
2023-02-16T15:09:03.645Z,13.73
2023-02-16T15:11:40.775Z,11.83
2023-02-16T15:14:16.475Z,11.83
2023-02-16T15:16:47.752Z,10.43
2023-02-16T15:19:23.220Z,11.43
2023-02-16T15:22:12.012Z,14.77
2023-02-16T15:24:44.055Z,11.27
2023-02-16T15:27:24.299Z,12.30
2023-02-16T15:30:21.718Z,11.50
2023-02-16T15:32:55.531Z,10.23
2023-02-16T15:35:30.181Z,10.13
2023-02-16T15:38:09.951Z,9.77
2023-02-16T15:40:42.470Z,9.33
2023-02-16T15:43:22.421Z,10.93
2023-02-16T15:45:55.869Z,10.23
2023-02-16T15:48:30.353Z,11.90
2023-02-16T15:51:05.463Z,12.20
2023-02-16T15:53:41.724Z,12.73
2023-02-16T15:56:33.468Z,12.97
2023-02-16T15:59:08.384Z,12.67
2023-02-16T16:01:40.497Z,12.23
2023-02-16T16:04:18.145Z,9.03
2023-02-16T16:06:51.223Z,12.17
2023-02-16T16:09:28.111Z,11.37
2023-02-16T16:12:01.820Z,10.53
2023-02-16T16:14:36.560Z,10.93
2023-02-16T16:17:10.120Z,14.17
2023-02-16T16:19:41.547Z,11.00
2023-02-16T16:22:31.866Z,12.82
2023-02-16T16:25:04.220Z,12.53
2023-02-16T16:27:37.450Z,11.13
2023-02-16T16:35:47.936Z,14.87
2023-02-16T16:38:26.505Z,10.03
2023-02-16T16:40:59.454Z,11.80
2023-02-16T16:43:32.694Z,10.83
2023-02-16T16:46:16.937Z,14.50
2023-02-16T16:48:49.514Z,11.53
2023-02-16T16:51:22.756Z,17.97
2023-02-16T16:54:00.657Z,14.63
2023-02-16T16:56:33.194Z,16.60
2023-02-16T16:59:04.451Z,14.53
2023-02-16T17:01:35.918Z,12.77
2023-02-16T17:04:26.769Z,14.03
2023-02-16T17:06:58.123Z,14.10
2023-02-16T17:09:28.899Z,15.07
2023-02-16T17:12:00.940Z,13.37
2023-02-16T17:14:32.001Z,12.63
2023-02-16T17:17:03.114Z,16.20
2023-02-16T17:19:34.434Z,13.83
2023-02-16T17:22:07.780Z,13.13
2023-02-16T17:24:38.611Z,17.20
2023-02-16T17:27:10.335Z,15.40
2023-02-16T17:29:43.185Z,12.03
2023-02-16T17:32:14.210Z,13.47
2023-02-16T17:34:45.183Z,13.40
2023-02-16T17:37:19.603Z,12.63
2023-02-16T17:39:50.566Z,14.20
2023-02-16T17:42:21.795Z,14.33
2023-02-16T17:44:53.919Z,14.43
2023-02-16T17:47:25.653Z,17.23
2023-02-16T17:49:57.405Z,27.00
2023-02-16T17:52:28.849Z,14.53
2023-02-16T17:55:03.608Z,17.50
2023-02-16T17:57:34.802Z,12.40
2023-02-16T18:00:08.364Z,18.73
2023-02-16T18:02:39.535Z,17.27
2023-02-16T18:05:12.250Z,15.70
2023-02-16T18:07:44.274Z,16.27
2023-02-16T18:10:22.280Z,15.83
2023-02-16T18:12:53.605Z,16.73
2023-02-16T18:15:25.424Z,19.73
2023-02-16T18:17:56.436Z,13.63
2023-02-16T18:20:29.173Z,14.73
2023-02-16T18:23:00.916Z,14.30
2023-02-16T18:25:32.680Z,16.13
2023-02-16T18:28:03.886Z,16.20
2023-02-16T18:30:34.881Z,16.00
2023-02-16T18:33:06.190Z,15.70
2023-02-16T18:35:38.018Z,14.23
2023-02-16T18:38:09.270Z,15.90
2023-02-16T18:40:41.602Z,14.90
2023-02-16T18:43:12.744Z,17.07
2023-02-16T18:45:44.109Z,21.70
2023-02-16T18:48:15.299Z,14.97
2023-02-16T18:50:46.233Z,19.33
2023-02-16T18:53:17.298Z,17.37
2023-02-16T18:55:48.242Z,17.13
2023-02-16T18:58:19.481Z,17.40
2023-02-16T19:00:50.861Z,19.73
2023-02-16T19:03:21.824Z,21.47
2023-02-16T19:05:53.896Z,20.77
2023-02-16T19:08:24.838Z,16.70
2023-02-16T19:10:56.376Z,15.70
2023-02-16T19:13:27.970Z,14.30
2023-02-16T19:15:59.243Z,12.43
2023-02-16T19:18:48.872Z,17.03
2023-02-16T19:21:20.326Z,16.60
2023-02-16T19:23:52.082Z,15.00
2023-02-16T19:26:22.958Z,14.63
2023-02-16T19:28:55.179Z,16.93
2023-02-16T19:31:28.538Z,15.30
2023-02-16T19:36:40.857Z,15.40
2023-02-16T19:39:12.811Z,17.47
2023-02-16T19:41:45.954Z,16.13
2023-02-16T19:44:18.564Z,13.67
2023-02-16T19:46:51.200Z,12.47
2023-02-16T19:49:22.751Z,11.53
2023-02-16T19:51:55.126Z,12.37
2023-02-16T19:54:26.261Z,12.03
2023-02-16T19:56:57.717Z,13.53
2023-02-16T19:59:30.918Z,17.57
2023-02-16T20:02:02.108Z,13.70
2023-02-16T20:04:34.549Z,14.97
2023-02-16T20:07:07.003Z,16.83
2023-02-16T20:09:38.576Z,15.32
2023-02-16T20:12:10.334Z,14.60
2023-02-16T20:14:41.502Z,13.03
2023-02-16T20:17:13.020Z,12.93
2023-02-16T20:19:44.132Z,15.23
2023-02-16T20:22:16.934Z,11.73
2023-02-16T20:24:48.085Z,14.37
2023-02-16T20:29:56.896Z,16.03
2023-02-16T20:32:28.849Z,14.73
2023-02-16T20:35:00.082Z,13.23
2023-02-16T20:37:31.230Z,18.90
2023-02-16T20:40:02.280Z,12.70
2023-02-16T20:42:33.564Z,15.13
2023-02-16T20:45:04.607Z,12.90
2023-02-16T20:47:35.468Z,10.57
2023-02-16T20:50:07.531Z,12.83
2023-02-16T20:52:40.065Z,13.53
2023-02-16T20:55:12.450Z,15.10
2023-02-16T20:57:43.403Z,11.07
2023-02-16T21:02:54.825Z,14.00
2023-02-16T21:05:25.990Z,14.20
2023-02-16T21:07:56.543Z,13.83
2023-02-16T21:10:27.198Z,12.43
2023-02-16T21:12:57.825Z,15.57
2023-02-16T21:15:28.476Z,14.50
2023-02-16T21:17:59.448Z,13.60
2023-02-16T21:20:49.176Z,11.57
2023-02-16T21:23:20.045Z,11.10
2023-02-16T21:25:51.036Z,26.50
2023-02-16T21:28:22.062Z,15.20
2023-02-16T21:30:53.143Z,13.30
2023-02-16T21:33:24.354Z,15.20
2023-02-16T21:35:55.325Z,11.77
2023-02-16T21:38:26.237Z,13.20
2023-02-16T21:41:16.349Z,13.33
2023-02-16T21:43:47.404Z,14.37
2023-02-16T21:46:19.802Z,13.77
2023-02-16T21:48:51.416Z,14.20
2023-02-16T21:51:25.059Z,14.80
2023-02-16T21:53:56.713Z,15.20
2023-02-16T21:56:36.459Z,11.77
2023-02-16T21:59:09.170Z,17.57
2023-02-16T22:01:42.807Z,16.20
2023-02-16T22:04:15.728Z,13.77
2023-02-16T22:06:48.260Z,12.40
2023-02-16T22:09:21.652Z,15.00
2023-02-16T22:11:53.198Z,14.40
2023-02-16T22:14:24.111Z,14.30
2023-02-16T22:16:55.294Z,16.20
2023-02-16T22:19:26.438Z,14.20
2023-02-16T22:21:57.414Z,16.60
2023-02-16T22:24:28.436Z,15.37
2023-02-16T22:26:59.473Z,20.00
2023-02-16T22:29:30.401Z,14.83
2023-02-16T22:32:01.519Z,16.40
2023-02-16T22:34:32.689Z,13.93
2023-02-16T22:37:03.845Z,14.37
2023-02-16T22:42:13.616Z,15.20
2023-02-16T22:44:44.694Z,16.03
2023-02-16T22:47:15.523Z,14.73
2023-02-16T22:49:46.377Z,13.13
2023-02-16T22:52:17.451Z,14.90
2023-02-16T22:54:50.032Z,18.90
2023-02-16T22:57:21.280Z,14.77
2023-02-16T22:59:52.249Z,16.20
2023-02-16T23:02:23.255Z,15.50
2023-02-16T23:04:58.788Z,15.30
2023-02-16T23:07:29.849Z,18.00
2023-02-16T23:10:00.921Z,16.77
2023-02-16T23:12:31.837Z,16.97
2023-02-16T23:15:02.843Z,17.03
2023-02-16T23:17:33.801Z,16.33
2023-02-16T23:20:05.529Z,18.43
2023-02-16T23:22:36.793Z,18.33
2023-02-16T23:25:26.689Z,20.17
2023-02-16T23:27:57.952Z,17.70
2023-02-16T23:30:29.158Z,18.67
2023-02-16T23:33:00.361Z,20.23
2023-02-16T23:35:31.402Z,17.67
2023-02-16T23:38:03.806Z,20.60
2023-02-16T23:40:34.900Z,24.50
2023-02-16T23:43:05.750Z,18.47
2023-02-16T23:45:36.970Z,20.37
2023-02-16T23:48:08.319Z,22.97
2023-02-16T23:50:39.320Z,34.03
2023-02-16T23:53:10.390Z,15.53
2023-02-16T23:55:41.465Z,19.33
2023-02-16T23:58:12.198Z,17.17
